»·PEaware :: N172QT KDLO-KSBP

N172QT :: KDLO-KSBP

FLIGHT INFORMATION

Flight Status: Arrived
Operator: Privately registered:
United States
More flights under this callsign
Pilot: Kevin G. (10950)
Aircraft: CESSNA 172 SKYHAWK
(C172)
More flights by this aircraft type
Origin: KDLO Delano Mun
United States
Destination: KSBP San Luis Co Regl
United States
More flights between these airports :: More routes between these airports
Route: Visual
File this flight plan on PilotEdge
Remarks: VFR to San Luis
Altitude:
(Current/Filed)
6,500ft
Speed:
(Current/Filed)
105kts
Departed: 30-Jan-17 06:29 PM
Arrived: 30-Jan-17 07:34 PM
Distance/Time
Traveled:
75nm/1:05
Distance/Time
To Go:
Arrived

Flight Plot

Page will automatically refresh every two minutes.

Flight plan parsing failed; only flown route is shown


Map Options




Map Legend


Flown Route
Filed Route
Departure Airport
Arrival Airport
Navaid (VOR, NDB)
Fix

Horizontal Profiles

Position Reports

Time Latitude Longitude Heading Altitude Ground
Speed
30-Jan-17 18:17 35.745568 -119.238685 339 316ft 0kts
30-Jan-17 18:18 35.745568 -119.238685 339 316ft 0kts
30-Jan-17 18:19 35.745568 -119.238685 339 316ft 0kts
30-Jan-17 18:20 35.745568 -119.238685 339 316ft 0kts
30-Jan-17 18:21 35.745568 -119.238685 339 316ft 0kts
30-Jan-17 18:22 35.745649 -119.238653 60 316ft 5kts
30-Jan-17 18:23 35.742510 -119.236766 160 316ft 15kts
30-Jan-17 18:24 35.738916 -119.234898 126 316ft 9kts
30-Jan-17 18:25 35.738472 -119.234097 46 316ft 0kts
30-Jan-17 18:26 35.738472 -119.234097 46 316ft 0kts
30-Jan-17 18:27 35.738472 -119.234097 46 316ft 0kts
30-Jan-17 18:28 35.738453 -119.233412 81 316ft 0kts
30-Jan-17 18:29 35.746996 -119.237136 338 582ft 70kts
30-Jan-17 18:30 35.749218 -119.256986 226 1289ft 97kts
30-Jan-17 18:31 35.725292 -119.244763 150 1221ft 99kts
30-Jan-17 18:32 35.701176 -119.228703 153 1914ft 94kts
30-Jan-17 18:33 35.677709 -119.215652 160 2797ft 94kts
30-Jan-17 18:34 35.653087 -119.204669 154 3658ft 93kts
30-Jan-17 18:35 35.628025 -119.193722 154 4456ft 95kts
30-Jan-17 18:36 35.604115 -119.180415 155 5225ft 96kts
30-Jan-17 18:37 35.578665 -119.168653 156 5669ft 106kts
30-Jan-17 18:38 35.550749 -119.154681 159 5489ft 108kts
30-Jan-17 18:39 35.523394 -119.140461 153 5361ft 107kts
30-Jan-17 18:40 35.497899 -119.123922 154 5357ft 97kts
30-Jan-17 18:41 35.479721 -119.139173 228 5889ft 75kts
30-Jan-17 18:42 35.465810 -119.157935 231 6479ft 76kts
30-Jan-17 18:43 35.449866 -119.183670 233 6554ft 103kts
30-Jan-17 18:44 35.431665 -119.210277 236 6496ft 101kts
30-Jan-17 18:45 35.414015 -119.237256 226 6462ft 102kts
30-Jan-17 18:46 35.395606 -119.260163 227 6455ft 102kts
30-Jan-17 18:47 35.376421 -119.285217 225 6446ft 102kts
30-Jan-17 18:48 35.356481 -119.309705 230 6459ft 101kts
30-Jan-17 18:49 35.340083 -119.337536 245 6478ft 100kts
30-Jan-17 18:50 35.325386 -119.366723 243 6516ft 100kts
30-Jan-17 18:51 35.308639 -119.394401 235 6568ft 101kts
30-Jan-17 18:52 35.293017 -119.423340 242 6595ft 102kts
30-Jan-17 18:53 35.278166 -119.454126 244 6551ft 106kts
30-Jan-17 18:54 35.265898 -119.486748 245 6521ft 106kts
30-Jan-17 18:55 35.251728 -119.518498 249 6498ft 105kts
30-Jan-17 18:56 35.236839 -119.549569 240 6473ft 106kts
30-Jan-17 18:57 35.221029 -119.579900 241 6453ft 105kts
30-Jan-17 18:58 35.205596 -119.610377 244 6447ft 103kts
30-Jan-17 18:59 35.192424 -119.641129 247 6452ft 102kts
30-Jan-17 19:00 35.176974 -119.670037 235 6465ft 103kts
30-Jan-17 19:01 35.159334 -119.697170 243 6475ft 101kts
30-Jan-17 19:02 35.145531 -119.727053 240 6479ft 101kts
30-Jan-17 19:03 35.131051 -119.755412 240 6488ft 99kts
30-Jan-17 19:04 35.116836 -119.784441 241 6471ft 99kts
30-Jan-17 19:05 35.102356 -119.813253 238 6455ft 100kts
30-Jan-17 19:06 35.085184 -119.840263 232 6443ft 100kts
30-Jan-17 19:07 35.069260 -119.864533 236 6433ft 100kts
30-Jan-17 19:08 35.053289 -119.892297 235 6423ft 100kts
30-Jan-17 19:09 35.047591 -119.923470 278 6416ft 97kts
30-Jan-17 19:10 35.052894 -119.956017 280 6102ft 99kts
30-Jan-17 19:11 35.059470 -119.988496 291 5501ft 98kts
30-Jan-17 19:12 35.069691 -120.019472 289 4918ft 98kts
30-Jan-17 19:13 35.078498 -120.050611 292 4551ft 98kts
30-Jan-17 19:14 35.088283 -120.082333 280 4586ft 99kts
30-Jan-17 19:15 35.091575 -120.116211 276 4439ft 99kts
30-Jan-17 19:16 35.087843 -120.149619 256 4376ft 96kts
30-Jan-17 19:17 35.081067 -120.181511 261 4434ft 97kts
30-Jan-17 19:18 35.077903 -120.214167 267 4482ft 97kts
30-Jan-17 19:19 35.075536 -120.247057 265 4481ft 97kts
30-Jan-17 19:20 35.072620 -120.279658 273 4438ft 96kts
30-Jan-17 19:21 35.075701 -120.311987 282 4115ft 95kts
30-Jan-17 19:22 35.080260 -120.343792 283 3808ft 95kts
30-Jan-17 19:23 35.088272 -120.374393 294 3510ft 94kts
30-Jan-17 19:24 35.101113 -120.402054 302 3225ft 93kts
30-Jan-17 19:25 35.115078 -120.429059 304 3061ft 98kts
30-Jan-17 19:26 35.131502 -120.457511 304 3025ft 104kts
30-Jan-17 19:27 35.147879 -120.486089 304 2889ft 103kts
30-Jan-17 19:28 35.164301 -120.514361 308 2602ft 101kts
30-Jan-17 19:29 35.180792 -120.542108 303 2179ft 101kts
30-Jan-17 19:30 35.196476 -120.569561 301 1627ft 96kts
30-Jan-17 19:31 35.211097 -120.595024 304 1019ft 83kts
30-Jan-17 19:32 35.222572 -120.615118 303 597ft 66kts
30-Jan-17 19:33 35.232443 -120.632414 303 271ft 59kts
30-Jan-17 19:34 35.237328 -120.639918 7 214ft 7kts
30-Jan-17 19:35 35.237326 -120.639125 125 214ft 9kts
30-Jan-17 19:36 35.236161 -120.636274 34 214ft 8kts
30-Jan-17 19:37 35.236377 -120.635919 200 214ft 0kts
30-Jan-17 19:38 35.236377 -120.635919 200 214ft 0kts
30-Jan-17 19:39 35.236377 -120.635919 200 214ft 0kts
30-Jan-17 19:40 35.236377 -120.635919 200 214ft 0kts

Navigation Log

Ident Type
Flight plan parsing failed, navigation log unavailable